createdAt,value
2024-02-21T00:01:16.205Z,3.80
2024-02-21T00:03:43.610Z,4.87
2024-02-21T00:06:10.822Z,4.07
2024-02-21T00:08:38.104Z,4.20
2024-02-21T00:11:06.204Z,4.00
2024-02-21T00:13:33.977Z,3.97
2024-02-21T00:16:03.000Z,3.93
2024-02-21T00:18:30.762Z,3.97
2024-02-21T00:20:58.282Z,3.77
2024-02-21T00:23:25.511Z,4.30
2024-02-21T00:25:52.871Z,4.10
2024-02-21T00:28:20.341Z,3.80
2024-02-21T00:30:48.893Z,3.63
2024-02-21T00:33:16.379Z,2.93
2024-02-21T00:35:43.732Z,3.80
2024-02-21T00:38:10.931Z,4.20
2024-02-21T00:40:38.311Z,3.93
2024-02-21T00:43:05.759Z,3.13
2024-02-21T00:45:32.981Z,3.03
2024-02-21T00:48:00.397Z,3.50
2024-02-21T00:50:28.014Z,4.20
2024-02-21T00:52:55.431Z,3.27
2024-02-21T00:55:23.200Z,4.43
2024-02-21T00:57:50.508Z,3.03
2024-02-21T01:00:18.183Z,3.40
2024-02-21T01:02:45.529Z,3.80
2024-02-21T01:05:12.965Z,3.03
2024-02-21T01:07:40.304Z,3.17
2024-02-21T01:10:07.976Z,3.50
2024-02-21T01:12:35.197Z,3.60
2024-02-21T01:15:02.411Z,4.00
2024-02-21T01:17:29.681Z,3.50
2024-02-21T01:19:57.037Z,2.90
2024-02-21T01:22:24.312Z,3.27
2024-02-21T01:24:51.486Z,3.57
2024-02-21T01:27:18.764Z,3.93
2024-02-21T01:29:47.641Z,3.73
2024-02-21T01:32:14.935Z,4.77
2024-02-21T01:34:42.470Z,4.07
2024-02-21T01:37:10.179Z,3.50
2024-02-21T01:39:37.455Z,3.40
2024-02-21T01:42:04.966Z,4.00
2024-02-21T01:44:32.683Z,4.00
2024-02-21T01:46:59.965Z,3.90
2024-02-21T01:49:27.194Z,3.20
2024-02-21T01:51:54.629Z,2.90
2024-02-21T01:54:21.995Z,4.13
2024-02-21T01:56:49.352Z,3.30
2024-02-21T01:59:16.536Z,4.10
2024-02-21T02:01:43.865Z,3.20
2024-02-21T02:04:11.476Z,3.20
2024-02-21T02:06:38.721Z,3.37
2024-02-21T02:09:06.198Z,3.90
2024-02-21T02:11:36.727Z,3.60
2024-02-21T02:14:04.559Z,2.97
2024-02-21T02:16:32.137Z,3.50
2024-02-21T02:18:59.449Z,2.97
2024-02-21T02:21:34.484Z,2.80
2024-02-21T02:24:01.833Z,3.97
2024-02-21T02:26:29.017Z,3.40
2024-02-21T02:28:56.268Z,4.00
2024-02-21T02:31:23.641Z,3.30
2024-02-21T02:33:51.413Z,3.63
2024-02-21T02:36:19.204Z,3.70
2024-02-21T02:38:46.505Z,4.37
2024-02-21T02:41:13.777Z,3.60
2024-02-21T02:43:40.991Z,3.73
2024-02-21T02:46:08.397Z,3.80
2024-02-21T02:48:35.585Z,4.00
2024-02-21T02:51:02.924Z,3.40
2024-02-21T02:53:30.103Z,3.87
2024-02-21T02:55:57.792Z,2.80
2024-02-21T02:58:25.307Z,3.53
2024-02-21T03:00:52.831Z,3.40
2024-02-21T03:03:20.094Z,3.90
2024-02-21T03:05:47.937Z,3.53
2024-02-21T03:08:15.153Z,3.67
2024-02-21T03:10:42.665Z,3.30
2024-02-21T03:13:10.184Z,4.00
2024-02-21T03:15:37.506Z,2.93
2024-02-21T03:18:05.218Z,3.50
2024-02-21T03:20:33.640Z,3.83
2024-02-21T03:23:01.003Z,3.30
2024-02-21T03:25:28.311Z,2.87
2024-02-21T03:27:55.791Z,4.17
2024-02-21T03:30:23.155Z,3.40
2024-02-21T03:32:50.779Z,3.53
2024-02-21T03:35:17.999Z,3.40
2024-02-21T03:37:47.069Z,4.10
2024-02-21T03:40:14.302Z,3.53
2024-02-21T03:42:41.599Z,3.57
2024-02-21T03:45:09.523Z,3.57
2024-02-21T03:47:36.798Z,3.27
2024-02-21T03:50:04.408Z,3.93
2024-02-21T03:52:31.932Z,2.70
2024-02-21T03:54:59.268Z,2.87
2024-02-21T03:57:26.804Z,3.60
2024-02-21T03:59:54.161Z,2.90
2024-02-21T04:02:21.532Z,3.40
2024-02-21T04:04:49.270Z,4.13
2024-02-21T04:07:16.875Z,4.00
2024-02-21T04:09:45.519Z,3.60
2024-02-21T04:12:12.862Z,2.60
2024-02-21T04:14:42.828Z,3.43
2024-02-21T04:17:11.528Z,3.20
2024-02-21T04:19:39.869Z,3.30
2024-02-21T04:22:07.166Z,3.17
2024-02-21T04:24:34.318Z,3.00
2024-02-21T04:27:01.536Z,3.40
2024-02-21T04:29:29.820Z,3.60
2024-02-21T04:31:57.574Z,3.10
2024-02-21T04:34:25.112Z,3.50
2024-02-21T04:36:52.612Z,3.10
2024-02-21T04:39:19.968Z,3.40
2024-02-21T04:41:47.132Z,2.90
2024-02-21T04:44:14.291Z,2.83
2024-02-21T04:46:43.911Z,3.20
2024-02-21T04:49:11.157Z,3.60
2024-02-21T04:51:38.774Z,3.13
2024-02-21T04:54:06.139Z,2.97
2024-02-21T04:56:33.557Z,3.40
2024-02-21T04:59:01.035Z,2.97
2024-02-21T05:01:28.370Z,2.50
2024-02-21T05:03:55.670Z,3.20
2024-02-21T05:06:22.933Z,3.00
2024-02-21T05:08:50.405Z,2.80
2024-02-21T05:11:17.730Z,3.80
2024-02-21T05:13:45.381Z,3.70
2024-02-21T05:16:12.713Z,3.73
2024-02-21T05:18:40.154Z,3.47
2024-02-21T05:21:07.950Z,3.80
2024-02-21T05:23:35.617Z,3.27
2024-02-21T05:26:03.012Z,3.67
2024-02-21T05:28:30.361Z,3.67
2024-02-21T05:30:57.612Z,2.97
2024-02-21T05:33:25.118Z,3.00
2024-02-21T05:35:52.663Z,3.07
2024-02-21T05:38:19.886Z,3.43
2024-02-21T05:40:47.269Z,2.57
2024-02-21T05:43:15.411Z,3.33
2024-02-21T05:45:42.700Z,3.03
2024-02-21T05:48:10.027Z,2.73
2024-02-21T05:50:37.643Z,3.20
2024-02-21T05:53:05.010Z,3.67
2024-02-21T05:55:32.375Z,3.20
2024-02-21T05:57:59.725Z,3.23
2024-02-21T06:00:26.897Z,3.57
2024-02-21T06:02:54.236Z,2.80
2024-02-21T06:05:21.783Z,3.10
2024-02-21T06:07:49.944Z,2.90
2024-02-21T06:10:17.842Z,2.83
2024-02-21T06:12:45.289Z,2.90
2024-02-21T06:15:12.577Z,3.03
2024-02-21T06:17:40.024Z,2.67
2024-02-21T06:20:07.825Z,3.03
2024-02-21T06:22:35.750Z,2.57
2024-02-21T06:25:03.405Z,2.60
2024-02-21T06:27:30.634Z,2.00
2024-02-21T06:29:57.945Z,1.80
2024-02-21T06:32:25.412Z,2.70
2024-02-21T06:34:52.932Z,2.63
2024-02-21T06:37:20.283Z,2.17
2024-02-21T06:39:47.708Z,2.30
2024-02-21T06:42:15.389Z,2.50
2024-02-21T06:44:43.047Z,3.20
2024-02-21T06:47:10.442Z,3.23
2024-02-21T06:49:38.541Z,3.77
2024-02-21T06:52:06.959Z,2.70
2024-02-21T06:54:34.428Z,3.07
2024-02-21T06:57:01.739Z,2.77
2024-02-21T06:59:32.261Z,3.27
2024-02-21T07:01:59.709Z,3.63
2024-02-21T07:04:27.413Z,3.10
2024-02-21T07:06:54.883Z,3.00
2024-02-21T07:09:22.501Z,3.20
2024-02-21T07:11:49.997Z,2.67
2024-02-21T07:14:17.279Z,2.80
2024-02-21T07:16:44.527Z,3.30
2024-02-21T07:19:11.877Z,2.60
2024-02-21T07:21:40.867Z,2.60
2024-02-21T07:24:08.908Z,2.80
2024-02-21T07:26:36.302Z,2.63
2024-02-21T07:29:03.650Z,3.23
2024-02-21T07:31:31.052Z,3.17
2024-02-21T07:33:58.342Z,2.90
2024-02-21T07:36:32.117Z,3.43
2024-02-21T07:38:59.461Z,10.37
2024-02-21T07:41:27.454Z,8.73
2024-02-21T07:43:55.197Z,9.23
2024-02-21T07:46:22.760Z,10.20
2024-02-21T07:48:50.242Z,4.40
2024-02-21T07:51:20.816Z,3.57
2024-02-21T07:53:48.684Z,2.80
2024-02-21T07:56:16.355Z,2.90
2024-02-21T07:58:43.835Z,2.60
2024-02-21T08:01:12.479Z,1.43
2024-02-21T08:03:40.323Z,2.20
2024-02-21T08:06:07.670Z,1.80
2024-02-21T08:08:35.102Z,2.07
2024-02-21T08:11:02.501Z,2.13
2024-02-21T08:13:30.368Z,1.60
2024-02-21T08:15:58.963Z,2.57
2024-02-21T08:18:27.614Z,2.33
2024-02-21T08:20:54.909Z,1.60
2024-02-21T08:23:24.974Z,1.53
2024-02-21T08:25:52.357Z,1.70
2024-02-21T08:28:19.682Z,1.33
2024-02-21T08:30:51.442Z,1.73
2024-02-21T08:33:19.098Z,1.93
2024-02-21T08:35:46.579Z,1.90
2024-02-21T08:38:14.030Z,2.27
2024-02-21T08:40:41.281Z,2.20
2024-02-21T08:43:08.544Z,1.60
2024-02-21T08:45:35.923Z,1.50
2024-02-21T08:48:03.309Z,1.33
2024-02-21T08:50:31.256Z,1.50
2024-02-21T08:52:59.206Z,1.20
2024-02-21T08:55:27.191Z,1.27
2024-02-21T08:57:54.503Z,1.60
2024-02-21T09:00:28.156Z,2.07
2024-02-21T09:02:57.613Z,2.00
2024-02-21T09:05:26.714Z,1.50
2024-02-21T09:07:54.981Z,1.40
2024-02-21T09:10:22.719Z,4.90
2024-02-21T09:12:50.442Z,2.07
2024-02-21T09:15:17.872Z,4.00
2024-02-21T09:17:45.680Z,2.80
2024-02-21T09:20:13.569Z,3.10
2024-02-21T09:22:42.668Z,2.47
2024-02-21T09:25:12.737Z,1.50
2024-02-21T09:27:40.681Z,1.90
2024-02-21T09:30:08.391Z,1.60
2024-02-21T09:32:36.011Z,1.70
2024-02-21T09:35:03.703Z,1.80
2024-02-21T09:37:31.660Z,1.70
2024-02-21T09:39:59.093Z,1.50
2024-02-21T09:42:28.279Z,1.80
2024-02-21T09:44:55.561Z,1.23
2024-02-21T09:47:22.943Z,1.83
2024-02-21T09:49:50.305Z,1.67
2024-02-21T09:52:18.287Z,1.20
2024-02-21T09:54:46.584Z,1.60
2024-02-21T09:57:14.429Z,1.90
2024-02-21T09:59:43.199Z,1.60
2024-02-21T10:02:12.713Z,1.10
2024-02-21T10:04:41.857Z,1.77
2024-02-21T10:07:09.239Z,1.43
2024-02-21T10:09:36.682Z,1.80
2024-02-21T10:12:11.362Z,1.23
2024-02-21T10:14:38.988Z,1.50
2024-02-21T10:17:11.719Z,1.00
2024-02-21T10:19:43.573Z,1.50
2024-02-21T10:22:11.504Z,1.50
2024-02-21T10:24:45.131Z,1.40
2024-02-21T10:27:13.392Z,1.70
2024-02-21T10:29:41.234Z,1.30
2024-02-21T10:32:09.852Z,2.47
2024-02-21T10:34:37.757Z,2.47
2024-02-21T10:37:05.368Z,1.27
2024-02-21T10:39:36.543Z,1.60
2024-02-21T10:42:08.734Z,1.30
2024-02-21T10:44:38.569Z,2.53
2024-02-21T10:47:09.221Z,1.67
2024-02-21T10:49:40.677Z,1.27
2024-02-21T10:52:27.114Z,1.27
2024-02-21T10:54:54.427Z,1.40
2024-02-21T10:57:22.031Z,1.30
2024-02-21T10:59:49.201Z,1.20
2024-02-21T11:02:17.136Z,0.83
2024-02-21T11:04:44.642Z,1.10
2024-02-21T11:07:12.082Z,1.40
2024-02-21T11:09:39.412Z,0.80
2024-02-21T11:12:07.481Z,0.90
2024-02-21T11:14:40.653Z,1.37
2024-02-21T11:17:22.388Z,1.10
2024-02-21T11:19:50.090Z,1.00
2024-02-21T11:22:21.137Z,1.40
2024-02-21T11:24:48.856Z,1.17
2024-02-21T11:27:22.747Z,0.93
2024-02-21T11:29:52.345Z,0.80
2024-02-21T11:32:21.343Z,1.10
2024-02-21T11:35:03.775Z,1.33
2024-02-21T11:37:31.787Z,0.90
2024-02-21T11:39:59.007Z,1.10
2024-02-21T11:42:30.183Z,1.07
2024-02-21T11:45:01.477Z,0.83
2024-02-21T11:47:30.577Z,0.80
2024-02-21T11:49:58.163Z,1.03
2024-02-21T11:52:27.233Z,0.67
2024-02-21T11:54:55.969Z,0.73
2024-02-21T11:57:23.413Z,0.70
2024-02-21T11:59:53.893Z,0.90
2024-02-21T12:02:23.004Z,1.00
2024-02-21T12:04:50.558Z,0.70
2024-02-21T12:07:19.069Z,0.70
2024-02-21T12:09:46.317Z,0.63
2024-02-21T12:12:13.687Z,0.77
2024-02-21T12:14:40.992Z,0.60
2024-02-21T12:17:08.422Z,0.77
2024-02-21T12:19:36.033Z,1.00
2024-02-21T12:22:07.635Z,0.90
2024-02-21T12:24:35.485Z,1.00
2024-02-21T12:27:05.174Z,0.97
2024-02-21T12:29:32.443Z,1.00
2024-02-21T12:31:59.804Z,0.73
2024-02-21T12:34:35.343Z,1.10
2024-02-21T12:37:14.506Z,1.13
2024-02-21T12:39:42.047Z,1.00
2024-02-21T12:42:11.249Z,1.27
2024-02-21T12:44:38.823Z,1.23
2024-02-21T12:47:06.325Z,1.50
2024-02-21T12:49:33.743Z,1.50
2024-02-21T12:52:01.524Z,1.40
2024-02-21T12:54:29.073Z,1.20
2024-02-21T12:56:56.480Z,0.80
2024-02-21T12:59:24.372Z,0.87
2024-02-21T13:01:51.772Z,1.10
2024-02-21T13:04:19.071Z,0.77
2024-02-21T13:06:46.653Z,0.70
2024-02-21T13:09:15.549Z,1.07
2024-02-21T13:11:43.072Z,1.10
2024-02-21T13:14:10.732Z,0.90
2024-02-21T13:16:40.881Z,0.60
2024-02-21T13:19:12.019Z,0.80
2024-02-21T13:21:39.607Z,0.80
2024-02-21T13:24:06.865Z,1.00
2024-02-21T13:26:34.204Z,0.80
2024-02-21T13:29:01.599Z,1.20
2024-02-21T13:31:29.270Z,1.07
2024-02-21T13:33:56.903Z,0.70
2024-02-21T13:36:25.015Z,0.87
2024-02-21T13:38:54.211Z,0.90
2024-02-21T13:41:24.445Z,0.80
2024-02-21T13:43:51.790Z,1.07
2024-02-21T13:46:19.436Z,0.70
2024-02-21T13:48:46.975Z,0.70
2024-02-21T13:51:14.710Z,0.70
2024-02-21T13:53:43.040Z,0.83
2024-02-21T13:56:10.948Z,0.93
2024-02-21T13:58:42.112Z,0.60
2024-02-21T14:01:11.034Z,0.70
2024-02-21T14:03:39.791Z,0.80
2024-02-21T14:06:08.158Z,0.77
2024-02-21T14:08:38.619Z,0.97
2024-02-21T14:11:07.195Z,0.80
2024-02-21T14:13:40.736Z,0.67
2024-02-21T14:16:21.358Z,1.00
2024-02-21T14:18:52.882Z,0.80
2024-02-21T14:21:21.094Z,0.83
2024-02-21T14:23:48.595Z,1.00
2024-02-21T14:26:16.023Z,0.87
2024-02-21T14:28:43.909Z,1.20
2024-02-21T14:31:12.557Z,1.90
2024-02-21T14:33:43.312Z,0.90
2024-02-21T14:36:12.804Z,0.80
2024-02-21T14:38:43.028Z,0.80
2024-02-21T14:41:13.592Z,0.80
2024-02-21T14:43:41.434Z,1.00
2024-02-21T14:46:09.169Z,0.70
2024-02-21T14:48:37.677Z,0.93
2024-02-21T14:51:06.151Z,0.80
2024-02-21T14:53:33.709Z,1.00
2024-02-21T14:56:01.244Z,2.40
2024-02-21T14:58:28.633Z,1.80
2024-02-21T15:00:56.155Z,0.50
2024-02-21T15:03:23.604Z,0.70
2024-02-21T15:05:51.095Z,6.57
2024-02-21T15:08:19.570Z,0.83
2024-02-21T15:10:47.069Z,1.13
2024-02-21T15:13:14.783Z,2.00
2024-02-21T15:15:42.241Z,1.50
2024-02-21T15:18:09.491Z,1.33
2024-02-21T15:20:38.210Z,1.60
2024-02-21T15:23:06.332Z,1.50
2024-02-21T15:25:34.990Z,1.40
2024-02-21T15:28:05.710Z,1.07
2024-02-21T15:30:33.261Z,1.53
2024-02-21T15:33:02.939Z,1.30
2024-02-21T15:35:33.472Z,1.10
2024-02-21T15:38:00.825Z,1.50
2024-02-21T15:40:28.193Z,1.80
2024-02-21T15:42:55.784Z,2.13
2024-02-21T15:45:23.209Z,2.10
2024-02-21T15:47:50.588Z,1.63
2024-02-21T15:50:18.023Z,2.50
2024-02-21T15:52:45.745Z,1.60
2024-02-21T15:55:13.606Z,2.50
2024-02-21T15:57:40.981Z,2.40
2024-02-21T16:00:13.437Z,2.07
2024-02-21T16:02:42.224Z,1.37
2024-02-21T16:05:13.630Z,1.30
2024-02-21T16:07:41.166Z,1.57
2024-02-21T16:10:08.813Z,1.33
2024-02-21T16:12:36.244Z,1.40
2024-02-21T16:15:05.680Z,1.77
2024-02-21T16:17:33.411Z,2.10
2024-02-21T16:20:02.160Z,15.40
2024-02-21T16:22:30.233Z,9.80
2024-02-21T16:24:57.467Z,6.30
2024-02-21T16:27:25.949Z,4.43
2024-02-21T16:29:53.133Z,2.80
2024-02-21T16:32:20.494Z,9.43
2024-02-21T16:34:47.863Z,7.80
2024-02-21T16:37:15.420Z,8.00
2024-02-21T16:39:42.684Z,5.50
2024-02-21T16:42:11.756Z,3.47
2024-02-21T16:44:39.121Z,3.53
2024-02-21T16:47:06.593Z,3.40
2024-02-21T16:49:36.868Z,3.13
2024-02-21T16:52:05.472Z,3.80
2024-02-21T16:54:32.871Z,7.80
2024-02-21T16:57:00.708Z,8.20
2024-02-21T16:59:27.968Z,6.93
2024-02-21T17:01:55.427Z,5.30
2024-02-21T17:04:22.919Z,5.43
2024-02-21T17:06:50.440Z,31.53
2024-02-21T17:09:19.155Z,23.40
2024-02-21T17:11:46.883Z,11.47
2024-02-21T17:14:14.384Z,8.80
2024-02-21T17:16:41.864Z,8.20
2024-02-21T17:19:09.423Z,5.83
2024-02-21T17:21:36.792Z,6.70
2024-02-21T17:24:04.025Z,8.70
2024-02-21T17:26:31.319Z,8.07
2024-02-21T17:28:58.707Z,8.00
2024-02-21T17:31:25.996Z,8.10
2024-02-21T17:33:53.580Z,8.67
2024-02-21T17:36:21.068Z,9.10
2024-02-21T17:38:52.010Z,13.43
2024-02-21T17:41:22.890Z,17.33
2024-02-21T17:43:50.194Z,21.53
2024-02-21T17:46:17.495Z,38.17
2024-02-21T17:48:44.948Z,29.20
2024-02-21T17:51:12.256Z,19.50
2024-02-21T17:53:39.717Z,16.80
2024-02-21T17:56:08.646Z,14.63
2024-02-21T17:58:35.941Z,14.47
2024-02-21T18:01:03.289Z,11.10
2024-02-21T18:03:31.686Z,10.10
2024-02-21T18:06:00.412Z,12.60
2024-02-21T18:08:27.814Z,12.63
2024-02-21T18:10:55.341Z,10.73
2024-02-21T18:13:23.301Z,7.93
2024-02-21T18:15:50.692Z,8.83
2024-02-21T18:18:18.153Z,6.13
2024-02-21T18:20:45.920Z,5.90
2024-02-21T18:23:13.460Z,9.10
2024-02-21T18:25:41.490Z,8.30
2024-02-21T18:28:08.744Z,9.23
2024-02-21T18:30:35.964Z,8.10
2024-02-21T18:33:03.650Z,6.43
2024-02-21T18:35:32.959Z,6.43
2024-02-21T18:38:00.345Z,7.37
2024-02-21T18:40:29.102Z,7.00
2024-02-21T18:42:58.869Z,6.23
2024-02-21T18:45:26.581Z,5.50
2024-02-21T18:47:53.856Z,7.03
2024-02-21T18:50:21.318Z,6.30
2024-02-21T18:52:53.505Z,5.60
2024-02-21T18:55:21.290Z,5.63
2024-02-21T18:57:49.030Z,5.40
2024-02-21T19:00:23.572Z,4.40
2024-02-21T19:02:51.128Z,4.43
2024-02-21T19:05:18.949Z,4.40
2024-02-21T19:07:46.421Z,3.97
2024-02-21T19:10:14.765Z,3.23
2024-02-21T19:12:42.385Z,3.83
2024-02-21T19:15:09.818Z,3.50
2024-02-21T19:17:37.075Z,4.33
2024-02-21T19:20:04.525Z,6.50
2024-02-21T19:22:37.234Z,6.77
2024-02-21T19:25:09.610Z,5.80
2024-02-21T19:27:37.141Z,6.20
2024-02-21T19:30:04.555Z,27.30
2024-02-21T19:32:31.966Z,18.27
2024-02-21T19:34:59.283Z,12.87
2024-02-21T19:37:26.906Z,5.23
2024-02-21T19:39:54.526Z,3.97
2024-02-21T19:42:22.844Z,4.00
2024-02-21T19:44:50.371Z,5.23
2024-02-21T19:47:17.996Z,4.07
2024-02-21T19:49:45.268Z,4.40
2024-02-21T19:52:12.699Z,4.00
2024-02-21T19:54:39.992Z,3.40
2024-02-21T19:57:07.374Z,4.20
2024-02-21T19:59:36.642Z,4.90
2024-02-21T20:02:04.059Z,9.97
2024-02-21T20:04:32.981Z,10.77
2024-02-21T20:07:01.043Z,7.80
2024-02-21T20:09:28.314Z,6.87
2024-02-21T20:11:56.217Z,6.30
2024-02-21T20:14:23.586Z,5.97
2024-02-21T20:16:51.295Z,6.00
2024-02-21T20:19:19.025Z,5.37
2024-02-21T20:21:47.857Z,6.37
2024-02-21T20:24:27.668Z,7.23
2024-02-21T20:27:02.406Z,6.07
2024-02-21T20:29:29.610Z,4.23
2024-02-21T20:32:00.406Z,4.73
2024-02-21T20:34:31.751Z,5.67
2024-02-21T20:37:00.024Z,7.83
2024-02-21T20:39:30.441Z,7.90
2024-02-21T20:41:58.171Z,7.90
2024-02-21T20:44:28.712Z,4.70
2024-02-21T20:46:56.577Z,4.70
2024-02-21T20:49:23.946Z,4.77
2024-02-21T20:51:51.348Z,7.77
2024-02-21T20:54:19.013Z,7.80
2024-02-21T20:56:46.624Z,5.07
2024-02-21T20:59:16.683Z,3.80
2024-02-21T21:01:47.430Z,3.73
2024-02-21T21:04:22.230Z,3.30
2024-02-21T21:06:50.016Z,3.63
2024-02-21T21:09:20.072Z,2.93
2024-02-21T21:11:47.899Z,4.13
2024-02-21T21:14:15.517Z,2.50
2024-02-21T21:16:43.133Z,3.70
2024-02-21T21:19:11.443Z,3.13
2024-02-21T21:21:44.402Z,3.47
2024-02-21T21:24:13.546Z,3.20
2024-02-21T21:26:41.162Z,2.73
2024-02-21T21:29:08.858Z,3.70
2024-02-21T21:31:36.314Z,2.77
2024-02-21T21:34:04.027Z,3.60
2024-02-21T21:36:31.646Z,2.73
2024-02-21T21:38:58.892Z,2.90
2024-02-21T21:41:27.469Z,3.63
2024-02-21T21:43:54.842Z,4.00
2024-02-21T21:46:22.356Z,3.23
2024-02-21T21:48:50.197Z,3.43
2024-02-21T21:51:17.499Z,3.30
2024-02-21T21:53:46.709Z,3.10
2024-02-21T21:56:14.421Z,3.20
2024-02-21T21:58:42.248Z,3.00
2024-02-21T22:01:14.774Z,2.83
2024-02-21T22:03:44.113Z,2.70
2024-02-21T22:06:14.076Z,2.93
2024-02-21T22:08:45.401Z,3.53
2024-02-21T22:11:15.289Z,3.40
2024-02-21T22:13:42.794Z,3.87
2024-02-21T22:16:10.756Z,3.93
2024-02-21T22:18:38.781Z,3.13
2024-02-21T22:21:06.282Z,3.60
2024-02-21T22:23:36.028Z,3.40
2024-02-21T22:26:05.501Z,4.87
2024-02-21T22:28:33.808Z,2.80
2024-02-21T22:31:01.354Z,3.53
2024-02-21T22:33:29.013Z,3.80
2024-02-21T22:35:56.299Z,3.33
2024-02-21T22:38:24.009Z,3.37
2024-02-21T22:40:51.570Z,2.90
2024-02-21T22:43:18.894Z,3.00
2024-02-21T22:45:48.483Z,2.93
2024-02-21T22:48:15.853Z,2.67
2024-02-21T22:50:43.475Z,2.40
2024-02-21T22:53:10.968Z,3.37
2024-02-21T22:55:38.265Z,2.60
2024-02-21T22:58:05.634Z,2.43
2024-02-21T23:00:33.119Z,3.43
2024-02-21T23:03:00.664Z,2.60
2024-02-21T23:05:28.265Z,3.00
2024-02-21T23:07:55.717Z,2.70
2024-02-21T23:10:25.144Z,2.50
2024-02-21T23:12:52.759Z,3.10
2024-02-21T23:15:20.189Z,2.70
2024-02-21T23:17:47.669Z,3.10
2024-02-21T23:20:15.229Z,2.53
2024-02-21T23:22:43.628Z,3.20
2024-02-21T23:25:14.283Z,3.30
2024-02-21T23:27:42.320Z,2.97
2024-02-21T23:30:12.981Z,2.97
2024-02-21T23:32:40.612Z,2.77
2024-02-21T23:35:08.653Z,2.67
2024-02-21T23:37:36.085Z,2.60
2024-02-21T23:40:03.491Z,3.30
2024-02-21T23:42:30.757Z,3.00
2024-02-21T23:44:59.146Z,3.20
2024-02-21T23:47:26.510Z,3.10
2024-02-21T23:49:54.037Z,2.47
2024-02-21T23:52:21.383Z,3.20
2024-02-21T23:54:48.820Z,2.93
2024-02-21T23:57:16.481Z,3.30
2024-02-21T23:59:45.478Z,3.47
